sensor_id;sensor_type;location;lat;lon;timestamp;temperature;humidity
15127;DHT22;7664;52.008;4.748;2023-10-19T00:02:08;12.70;99.90
15127;DHT22;7664;52.008;4.748;2023-10-19T00:04:35;12.70;99.90
15127;DHT22;7664;52.008;4.748;2023-10-19T00:07:05;12.80;99.90
15127;DHT22;7664;52.008;4.748;2023-10-19T00:09:35;12.80;99.90
15127;DHT22;7664;52.008;4.748;2023-10-19T00:12:06;12.90;99.90
15127;DHT22;7664;52.008;4.748;2023-10-19T00:14:36;12.80;99.90
15127;DHT22;7664;52.008;4.748;2023-10-19T00:17:03;12.90;99.90
15127;DHT22;7664;52.008;4.748;2023-10-19T00:19:37;12.90;99.90
15127;DHT22;7664;52.008;4.748;2023-10-19T00:22:10;13.00;99.90
15127;DHT22;7664;52.008;4.748;2023-10-19T00:24:43;13.00;99.90
15127;DHT22;7664;52.008;4.748;2023-10-19T00:27:11;13.00;99.90
15127;DHT22;7664;52.008;4.748;2023-10-19T00:29:44;13.00;99.90
15127;DHT22;7664;52.008;4.748;2023-10-19T00:32:16;13.00;99.90
15127;DHT22;7664;52.008;4.748;2023-10-19T00:34:46;13.00;99.90
15127;DHT22;7664;52.008;4.748;2023-10-19T00:37:20;13.10;99.90
15127;DHT22;7664;52.008;4.748;2023-10-19T00:39:56;13.10;99.90
15127;DHT22;7664;52.008;4.748;2023-10-19T00:42:41;13.20;99.90
15127;DHT22;7664;52.008;4.748;2023-10-19T00:45:13;13.20;99.90
15127;DHT22;7664;52.008;4.748;2023-10-19T00:47:42;13.20;99.90
15127;DHT22;7664;52.008;4.748;2023-10-19T00:50:10;13.30;99.90
15127;DHT22;7664;52.008;4.748;2023-10-19T00:52:44;13.30;99.90
15127;DHT22;7664;52.008;4.748;2023-10-19T00:55:17;13.30;99.90
15127;DHT22;7664;52.008;4.748;2023-10-19T00:57:48;13.30;99.90
15127;DHT22;7664;52.008;4.748;2023-10-19T01:00:17;13.40;99.90
15127;DHT22;7664;52.008;4.748;2023-10-19T01:02:57;13.40;99.90
15127;DHT22;7664;52.008;4.748;2023-10-19T01:05:31;13.50;99.90
15127;DHT22;7664;52.008;4.748;2023-10-19T01:08:06;13.40;99.90
15127;DHT22;7664;52.008;4.748;2023-10-19T01:10:47;13.60;99.90
15127;DHT22;7664;52.008;4.748;2023-10-19T01:13:19;13.60;99.90
15127;DHT22;7664;52.008;4.748;2023-10-19T01:15:54;13.60;99.90
15127;DHT22;7664;52.008;4.748;2023-10-19T01:18:24;13.60;99.90
15127;DHT22;7664;52.008;4.748;2023-10-19T01:20:59;13.60;99.90
15127;DHT22;7664;52.008;4.748;2023-10-19T01:23:33;13.70;99.90
15127;DHT22;7664;52.008;4.748;2023-10-19T01:26:02;13.70;99.90
15127;DHT22;7664;52.008;4.748;2023-10-19T01:28:37;13.70;99.90
15127;DHT22;7664;52.008;4.748;2023-10-19T01:31:16;13.80;99.90
15127;DHT22;7664;52.008;4.748;2023-10-19T01:33:49;13.80;99.90
15127;DHT22;7664;52.008;4.748;2023-10-19T01:36:21;14.00;99.90
15127;DHT22;7664;52.008;4.748;2023-10-19T01:38:54;13.90;99.90
15127;DHT22;7664;52.008;4.748;2023-10-19T01:41:23;14.10;99.90
15127;DHT22;7664;52.008;4.748;2023-10-19T01:43:53;14.10;99.90
15127;DHT22;7664;52.008;4.748;2023-10-19T01:46:23;14.20;99.90
15127;DHT22;7664;52.008;4.748;2023-10-19T01:48:52;14.30;99.90
15127;DHT22;7664;52.008;4.748;2023-10-19T01:51:26;14.40;99.90
15127;DHT22;7664;52.008;4.748;2023-10-19T01:53:55;14.50;99.90
15127;DHT22;7664;52.008;4.748;2023-10-19T01:56:24;14.60;99.90
15127;DHT22;7664;52.008;4.748;2023-10-19T01:58:52;14.60;99.90
15127;DHT22;7664;52.008;4.748;2023-10-19T02:01:22;14.60;99.90
15127;DHT22;7664;52.008;4.748;2023-10-19T02:03:58;14.70;99.90
15127;DHT22;7664;52.008;4.748;2023-10-19T02:06:29;14.70;99.90
15127;DHT22;7664;52.008;4.748;2023-10-19T02:09:04;14.70;99.90
15127;DHT22;7664;52.008;4.748;2023-10-19T02:11:44;14.80;99.90
15127;DHT22;7664;52.008;4.748;2023-10-19T02:14:15;14.80;99.90
15127;DHT22;7664;52.008;4.748;2023-10-19T02:16:47;14.80;99.90
15127;DHT22;7664;52.008;4.748;2023-10-19T02:19:14;14.90;99.90
15127;DHT22;7664;52.008;4.748;2023-10-19T02:21:43;14.80;99.90
15127;DHT22;7664;52.008;4.748;2023-10-19T02:24:16;14.90;99.90
15127;DHT22;7664;52.008;4.748;2023-10-19T02:26:45;14.90;99.90
15127;DHT22;7664;52.008;4.748;2023-10-19T02:29:13;14.90;99.90
15127;DHT22;7664;52.008;4.748;2023-10-19T02:31:42;15.00;99.90
15127;DHT22;7664;52.008;4.748;2023-10-19T02:34:12;15.00;99.90
15127;DHT22;7664;52.008;4.748;2023-10-19T02:36:43;14.90;99.90
15127;DHT22;7664;52.008;4.748;2023-10-19T02:39:12;15.00;99.90
15127;DHT22;7664;52.008;4.748;2023-10-19T02:41:44;15.00;99.90
15127;DHT22;7664;52.008;4.748;2023-10-19T02:44:13;15.00;99.90
15127;DHT22;7664;52.008;4.748;2023-10-19T02:46:51;15.00;99.90
15127;DHT22;7664;52.008;4.748;2023-10-19T02:49:21;15.00;99.90
15127;DHT22;7664;52.008;4.748;2023-10-19T02:51:51;15.00;99.90
15127;DHT22;7664;52.008;4.748;2023-10-19T02:54:20;15.00;99.90
15127;DHT22;7664;52.008;4.748;2023-10-19T02:56:52;15.00;99.90
15127;DHT22;7664;52.008;4.748;2023-10-19T02:59:21;15.00;99.90
15127;DHT22;7664;52.008;4.748;2023-10-19T03:01:51;15.00;99.90
15127;DHT22;7664;52.008;4.748;2023-10-19T03:04:19;15.00;99.90
15127;DHT22;7664;52.008;4.748;2023-10-19T03:06:48;15.00;99.90
15127;DHT22;7664;52.008;4.748;2023-10-19T03:09:16;15.00;99.90
15127;DHT22;7664;52.008;4.748;2023-10-19T03:11:50;15.00;99.90
15127;DHT22;7664;52.008;4.748;2023-10-19T03:14:20;15.00;99.90
15127;DHT22;7664;52.008;4.748;2023-10-19T03:16:52;14.90;99.90
15127;DHT22;7664;52.008;4.748;2023-10-19T03:19:22;14.90;99.90
15127;DHT22;7664;52.008;4.748;2023-10-19T03:21:52;14.90;99.90
15127;DHT22;7664;52.008;4.748;2023-10-19T03:24:20;14.90;99.90
15127;DHT22;7664;52.008;4.748;2023-10-19T03:27:04;15.00;99.90
15127;DHT22;7664;52.008;4.748;2023-10-19T03:29:40;15.00;99.90
15127;DHT22;7664;52.008;4.748;2023-10-19T03:32:13;15.00;99.90
15127;DHT22;7664;52.008;4.748;2023-10-19T03:34:44;14.90;99.90
15127;DHT22;7664;52.008;4.748;2023-10-19T03:37:17;15.00;99.90
15127;DHT22;7664;52.008;4.748;2023-10-19T03:39:48;15.00;99.90
15127;DHT22;7664;52.008;4.748;2023-10-19T03:42:19;14.90;99.90
15127;DHT22;7664;52.008;4.748;2023-10-19T03:44:50;14.80;99.90
15127;DHT22;7664;52.008;4.748;2023-10-19T03:47:21;14.80;99.90
15127;DHT22;7664;52.008;4.748;2023-10-19T03:49:53;14.80;99.90
15127;DHT22;7664;52.008;4.748;2023-10-19T03:52:21;14.70;99.90
15127;DHT22;7664;52.008;4.748;2023-10-19T03:54:49;14.70;99.90
15127;DHT22;7664;52.008;4.748;2023-10-19T03:57:19;14.70;99.90
15127;DHT22;7664;52.008;4.748;2023-10-19T03:59:50;14.60;99.90
15127;DHT22;7664;52.008;4.748;2023-10-19T04:02:24;14.60;99.90
15127;DHT22;7664;52.008;4.748;2023-10-19T04:04:56;14.50;99.90
15127;DHT22;7664;52.008;4.748;2023-10-19T04:07:25;14.50;99.90
15127;DHT22;7664;52.008;4.748;2023-10-19T04:09:55;14.40;99.90
15127;DHT22;7664;52.008;4.748;2023-10-19T04:12:41;14.40;99.90
15127;DHT22;7664;52.008;4.748;2023-10-19T04:15:10;14.40;99.90
15127;DHT22;7664;52.008;4.748;2023-10-19T04:17:42;14.40;99.90
15127;DHT22;7664;52.008;4.748;2023-10-19T04:20:12;14.40;99.90
15127;DHT22;7664;52.008;4.748;2023-10-19T04:22:56;14.50;99.90
15127;DHT22;7664;52.008;4.748;2023-10-19T04:25:32;14.40;99.90
15127;DHT22;7664;52.008;4.748;2023-10-19T04:28:02;14.40;99.90
15127;DHT22;7664;52.008;4.748;2023-10-19T04:30:32;14.40;99.90
15127;DHT22;7664;52.008;4.748;2023-10-19T04:33:04;14.40;99.90
15127;DHT22;7664;52.008;4.748;2023-10-19T04:35:36;14.40;99.90
15127;DHT22;7664;52.008;4.748;2023-10-19T04:38:08;14.50;99.90
15127;DHT22;7664;52.008;4.748;2023-10-19T04:40:36;14.50;99.90
15127;DHT22;7664;52.008;4.748;2023-10-19T04:43:07;14.50;99.90
15127;DHT22;7664;52.008;4.748;2023-10-19T04:45:39;14.50;99.90
15127;DHT22;7664;52.008;4.748;2023-10-19T04:48:08;14.60;99.90
15127;DHT22;7664;52.008;4.748;2023-10-19T04:50:37;14.50;99.90
15127;DHT22;7664;52.008;4.748;2023-10-19T04:53:06;14.50;99.90
15127;DHT22;7664;52.008;4.748;2023-10-19T04:55:35;14.50;99.90
15127;DHT22;7664;52.008;4.748;2023-10-19T04:58:03;14.50;99.90
15127;DHT22;7664;52.008;4.748;2023-10-19T05:00:34;14.50;99.90
15127;DHT22;7664;52.008;4.748;2023-10-19T05:03:02;14.50;99.90
15127;DHT22;7664;52.008;4.748;2023-10-19T05:05:30;14.50;99.90
15127;DHT22;7664;52.008;4.748;2023-10-19T05:07:58;14.50;99.90
15127;DHT22;7664;52.008;4.748;2023-10-19T05:10:26;14.60;99.90
15127;DHT22;7664;52.008;4.748;2023-10-19T05:12:55;14.60;99.90
15127;DHT22;7664;52.008;4.748;2023-10-19T05:15:25;14.60;99.90
15127;DHT22;7664;52.008;4.748;2023-10-19T05:17:55;14.60;99.90
15127;DHT22;7664;52.008;4.748;2023-10-19T05:20:24;14.50;99.90
15127;DHT22;7664;52.008;4.748;2023-10-19T05:22:52;14.50;99.90
15127;DHT22;7664;52.008;4.748;2023-10-19T05:25:20;14.50;99.90
15127;DHT22;7664;52.008;4.748;2023-10-19T05:27:50;14.50;99.90
15127;DHT22;7664;52.008;4.748;2023-10-19T05:30:18;14.50;99.90
15127;DHT22;7664;52.008;4.748;2023-10-19T05:32:50;14.60;99.90
15127;DHT22;7664;52.008;4.748;2023-10-19T05:35:20;14.50;99.90
15127;DHT22;7664;52.008;4.748;2023-10-19T05:37:53;14.60;99.90
15127;DHT22;7664;52.008;4.748;2023-10-19T05:40:23;14.60;99.90
15127;DHT22;7664;52.008;4.748;2023-10-19T05:42:57;14.60;99.90
15127;DHT22;7664;52.008;4.748;2023-10-19T05:45:27;14.60;99.90
15127;DHT22;7664;52.008;4.748;2023-10-19T05:48:02;14.60;99.90
15127;DHT22;7664;52.008;4.748;2023-10-19T05:50:47;14.60;99.90
15127;DHT22;7664;52.008;4.748;2023-10-19T05:53:16;14.60;99.90
15127;DHT22;7664;52.008;4.748;2023-10-19T05:55:45;14.50;99.90
15127;DHT22;7664;52.008;4.748;2023-10-19T05:58:14;14.60;99.90
15127;DHT22;7664;52.008;4.748;2023-10-19T06:00:42;14.60;99.90
15127;DHT22;7664;52.008;4.748;2023-10-19T06:03:11;14.50;99.90
15127;DHT22;7664;52.008;4.748;2023-10-19T06:05:39;14.60;99.90
15127;DHT22;7664;52.008;4.748;2023-10-19T06:08:10;14.50;99.90
15127;DHT22;7664;52.008;4.748;2023-10-19T06:10:40;14.60;99.90
15127;DHT22;7664;52.008;4.748;2023-10-19T06:13:09;14.60;99.90
15127;DHT22;7664;52.008;4.748;2023-10-19T06:15:38;14.50;99.90
15127;DHT22;7664;52.008;4.748;2023-10-19T06:18:06;14.50;99.90
15127;DHT22;7664;52.008;4.748;2023-10-19T06:20:35;14.50;99.90
15127;DHT22;7664;52.008;4.748;2023-10-19T06:23:05;14.50;99.90
15127;DHT22;7664;52.008;4.748;2023-10-19T06:25:37;14.50;99.90
15127;DHT22;7664;52.008;4.748;2023-10-19T06:28:06;14.50;99.90
15127;DHT22;7664;52.008;4.748;2023-10-19T06:30:34;14.50;99.90
15127;DHT22;7664;52.008;4.748;2023-10-19T06:33:03;14.40;99.90
15127;DHT22;7664;52.008;4.748;2023-10-19T06:35:32;14.50;99.90
15127;DHT22;7664;52.008;4.748;2023-10-19T06:38:01;14.60;99.90
15127;DHT22;7664;52.008;4.748;2023-10-19T06:40:31;14.60;99.90
15127;DHT22;7664;52.008;4.748;2023-10-19T06:43:03;14.60;99.90
15127;DHT22;7664;52.008;4.748;2023-10-19T06:45:32;14.60;99.90
15127;DHT22;7664;52.008;4.748;2023-10-19T06:48:00;14.60;99.90
15127;DHT22;7664;52.008;4.748;2023-10-19T06:50:30;14.70;99.90
15127;DHT22;7664;52.008;4.748;2023-10-19T06:52:59;14.70;99.90
15127;DHT22;7664;52.008;4.748;2023-10-19T06:55:28;14.70;99.90
15127;DHT22;7664;52.008;4.748;2023-10-19T06:57:56;14.70;99.90
15127;DHT22;7664;52.008;4.748;2023-10-19T07:00:26;14.80;99.90
15127;DHT22;7664;52.008;4.748;2023-10-19T07:03:02;14.80;99.90
15127;DHT22;7664;52.008;4.748;2023-10-19T07:05:30;14.80;99.90
15127;DHT22;7664;52.008;4.748;2023-10-19T07:07:59;14.80;99.90
15127;DHT22;7664;52.008;4.748;2023-10-19T07:10:29;14.90;99.90
15127;DHT22;7664;52.008;4.748;2023-10-19T07:12:57;14.90;99.90
15127;DHT22;7664;52.008;4.748;2023-10-19T07:15:27;14.90;99.90
15127;DHT22;7664;52.008;4.748;2023-10-19T07:17:57;14.90;99.90
15127;DHT22;7664;52.008;4.748;2023-10-19T07:20:26;14.90;99.90
15127;DHT22;7664;52.008;4.748;2023-10-19T07:22:56;15.00;99.90
15127;DHT22;7664;52.008;4.748;2023-10-19T07:25:27;15.00;99.90
15127;DHT22;7664;52.008;4.748;2023-10-19T07:27:56;15.10;99.90
15127;DHT22;7664;52.008;4.748;2023-10-19T07:30:28;15.10;99.90
15127;DHT22;7664;52.008;4.748;2023-10-19T07:32:57;15.10;99.90
15127;DHT22;7664;52.008;4.748;2023-10-19T07:35:27;15.20;99.90
15127;DHT22;7664;52.008;4.748;2023-10-19T07:38:00;15.20;99.90
15127;DHT22;7664;52.008;4.748;2023-10-19T07:40:30;15.20;99.90
15127;DHT22;7664;52.008;4.748;2023-10-19T07:42:58;15.20;99.90
15127;DHT22;7664;52.008;4.748;2023-10-19T07:45:28;15.20;99.90
15127;DHT22;7664;52.008;4.748;2023-10-19T07:47:58;15.10;99.90
15127;DHT22;7664;52.008;4.748;2023-10-19T07:50:33;15.30;99.90
15127;DHT22;7664;52.008;4.748;2023-10-19T07:53:02;15.30;99.90
15127;DHT22;7664;52.008;4.748;2023-10-19T07:55:31;15.30;99.90
15127;DHT22;7664;52.008;4.748;2023-10-19T07:57:59;15.40;99.90
15127;DHT22;7664;52.008;4.748;2023-10-19T08:00:30;15.40;99.90
15127;DHT22;7664;52.008;4.748;2023-10-19T08:03:03;15.40;99.90
15127;DHT22;7664;52.008;4.748;2023-10-19T08:05:32;15.40;99.90
15127;DHT22;7664;52.008;4.748;2023-10-19T08:08:01;15.40;99.90
15127;DHT22;7664;52.008;4.748;2023-10-19T08:10:31;15.50;99.90
15127;DHT22;7664;52.008;4.748;2023-10-19T08:13:02;15.40;99.90
15127;DHT22;7664;52.008;4.748;2023-10-19T08:15:32;15.50;99.90
15127;DHT22;7664;52.008;4.748;2023-10-19T08:18:00;15.50;99.90
15127;DHT22;7664;52.008;4.748;2023-10-19T08:20:28;15.60;99.90
15127;DHT22;7664;52.008;4.748;2023-10-19T08:23:01;15.60;99.90
15127;DHT22;7664;52.008;4.748;2023-10-19T08:25:29;15.70;99.90
15127;DHT22;7664;52.008;4.748;2023-10-19T08:28:00;15.70;99.90
15127;DHT22;7664;52.008;4.748;2023-10-19T08:30:28;15.70;99.90
15127;DHT22;7664;52.008;4.748;2023-10-19T08:32:58;15.70;99.90
15127;DHT22;7664;52.008;4.748;2023-10-19T08:35:26;15.80;99.90
15127;DHT22;7664;52.008;4.748;2023-10-19T08:37:56;15.90;99.90
15127;DHT22;7664;52.008;4.748;2023-10-19T08:40:26;16.00;99.90
15127;DHT22;7664;52.008;4.748;2023-10-19T08:42:55;16.10;99.90
15127;DHT22;7664;52.008;4.748;2023-10-19T08:45:24;16.10;99.90
15127;DHT22;7664;52.008;4.748;2023-10-19T08:47:54;16.20;99.90
15127;DHT22;7664;52.008;4.748;2023-10-19T08:50:27;16.20;99.90
15127;DHT22;7664;52.008;4.748;2023-10-19T08:52:58;16.40;99.90
15127;DHT22;7664;52.008;4.748;2023-10-19T08:55:28;16.50;99.90
15127;DHT22;7664;52.008;4.748;2023-10-19T08:58:15;16.60;99.90
15127;DHT22;7664;52.008;4.748;2023-10-19T09:00:46;16.70;99.90
15127;DHT22;7664;52.008;4.748;2023-10-19T09:03:16;16.90;99.90
15127;DHT22;7664;52.008;4.748;2023-10-19T09:05:46;17.00;99.90
15127;DHT22;7664;52.008;4.748;2023-10-19T09:08:16;17.00;99.90
15127;DHT22;7664;52.008;4.748;2023-10-19T09:10:46;17.00;99.90
15127;DHT22;7664;52.008;4.748;2023-10-19T09:13:14;17.10;99.90
15127;DHT22;7664;52.008;4.748;2023-10-19T09:15:45;17.10;99.90
15127;DHT22;7664;52.008;4.748;2023-10-19T09:18:17;17.20;99.90
15127;DHT22;7664;52.008;4.748;2023-10-19T09:20:48;17.30;99.90
15127;DHT22;7664;52.008;4.748;2023-10-19T09:23:30;17.40;99.90
15127;DHT22;7664;52.008;4.748;2023-10-19T09:26:00;17.50;99.90
15127;DHT22;7664;52.008;4.748;2023-10-19T09:28:30;17.50;99.90
15127;DHT22;7664;52.008;4.748;2023-10-19T09:31:01;17.60;99.90
15127;DHT22;7664;52.008;4.748;2023-10-19T09:33:32;17.60;99.90
15127;DHT22;7664;52.008;4.748;2023-10-19T09:36:04;17.60;99.90
15127;DHT22;7664;52.008;4.748;2023-10-19T09:38:44;17.70;99.90
15127;DHT22;7664;52.008;4.748;2023-10-19T09:41:17;17.70;99.90
15127;DHT22;7664;52.008;4.748;2023-10-19T09:43:47;17.70;99.90
15127;DHT22;7664;52.008;4.748;2023-10-19T09:46:21;17.80;99.90
15127;DHT22;7664;52.008;4.748;2023-10-19T09:48:49;17.80;99.90
15127;DHT22;7664;52.008;4.748;2023-10-19T09:51:20;17.90;99.90
15127;DHT22;7664;52.008;4.748;2023-10-19T09:53:53;17.90;99.90
15127;DHT22;7664;52.008;4.748;2023-10-19T09:56:28;17.90;99.90
15127;DHT22;7664;52.008;4.748;2023-10-19T09:59:02;17.90;99.90
15127;DHT22;7664;52.008;4.748;2023-10-19T10:02:03;17.90;99.90
15127;DHT22;7664;52.008;4.748;2023-10-19T10:04:33;18.00;99.90
15127;DHT22;7664;52.008;4.748;2023-10-19T10:07:04;18.00;99.90
15127;DHT22;7664;52.008;4.748;2023-10-19T10:09:35;18.10;99.90
15127;DHT22;7664;52.008;4.748;2023-10-19T10:12:17;18.10;99.90
15127;DHT22;7664;52.008;4.748;2023-10-19T10:14:56;18.20;99.90
15127;DHT22;7664;52.008;4.748;2023-10-19T10:17:27;18.30;99.90
15127;DHT22;7664;52.008;4.748;2023-10-19T10:20:04;18.30;99.90
15127;DHT22;7664;52.008;4.748;2023-10-19T10:23:24;18.40;99.90
15127;DHT22;7664;52.008;4.748;2023-10-19T10:25:53;18.50;99.90
15127;DHT22;7664;52.008;4.748;2023-10-19T10:28:21;18.60;99.90
15127;DHT22;7664;52.008;4.748;2023-10-19T10:31:10;18.60;99.90
15127;DHT22;7664;52.008;4.748;2023-10-19T10:33:43;18.70;99.90
15127;DHT22;7664;52.008;4.748;2023-10-19T10:36:13;18.80;99.90
15127;DHT22;7664;52.008;4.748;2023-10-19T10:38:43;18.80;99.90
15127;DHT22;7664;52.008;4.748;2023-10-19T10:41:11;18.90;99.90
15127;DHT22;7664;52.008;4.748;2023-10-19T10:43:53;18.90;99.90
15127;DHT22;7664;52.008;4.748;2023-10-19T10:46:23;18.90;99.90
15127;DHT22;7664;52.008;4.748;2023-10-19T10:48:52;18.90;99.90
15127;DHT22;7664;52.008;4.748;2023-10-19T10:51:22;18.90;99.90
15127;DHT22;7664;52.008;4.748;2023-10-19T10:53:53;19.00;99.90
15127;DHT22;7664;52.008;4.748;2023-10-19T10:56:23;18.90;99.90
15127;DHT22;7664;52.008;4.748;2023-10-19T10:58:51;18.90;99.90
15127;DHT22;7664;52.008;4.748;2023-10-19T11:01:28;18.90;99.90
15127;DHT22;7664;52.008;4.748;2023-10-19T11:04:07;18.90;99.90
15127;DHT22;7664;52.008;4.748;2023-10-19T11:06:48;19.00;99.90
15127;DHT22;7664;52.008;4.748;2023-10-19T11:09:18;19.10;99.90
15127;DHT22;7664;52.008;4.748;2023-10-19T11:11:46;19.10;99.90
15127;DHT22;7664;52.008;4.748;2023-10-19T11:14:16;19.10;99.90
15127;DHT22;7664;52.008;4.748;2023-10-19T11:16:44;19.10;99.90
15127;DHT22;7664;52.008;4.748;2023-10-19T11:19:13;19.10;99.90
15127;DHT22;7664;52.008;4.748;2023-10-19T11:21:52;19.10;99.90
15127;DHT22;7664;52.008;4.748;2023-10-19T11:24:26;19.20;99.90
15127;DHT22;7664;52.008;4.748;2023-10-19T11:26:59;19.20;99.90
15127;DHT22;7664;52.008;4.748;2023-10-19T11:29:27;19.20;99.90
15127;DHT22;7664;52.008;4.748;2023-10-19T11:31:59;19.20;99.90
15127;DHT22;7664;52.008;4.748;2023-10-19T11:34:29;19.30;99.90
15127;DHT22;7664;52.008;4.748;2023-10-19T11:37:02;19.40;99.90
15127;DHT22;7664;52.008;4.748;2023-10-19T11:39:33;19.40;99.90
15127;DHT22;7664;52.008;4.748;2023-10-19T11:42:01;19.50;99.90
15127;DHT22;7664;52.008;4.748;2023-10-19T11:44:29;19.40;99.90
15127;DHT22;7664;52.008;4.748;2023-10-19T11:46:57;19.50;99.90
15127;DHT22;7664;52.008;4.748;2023-10-19T11:49:25;19.50;99.90
15127;DHT22;7664;52.008;4.748;2023-10-19T11:51:54;19.50;99.90
15127;DHT22;7664;52.008;4.748;2023-10-19T11:54:22;19.50;99.90
15127;DHT22;7664;52.008;4.748;2023-10-19T11:56:53;19.50;99.90
15127;DHT22;7664;52.008;4.748;2023-10-19T11:59:21;19.50;99.90
15127;DHT22;7664;52.008;4.748;2023-10-19T12:01:50;19.50;99.90
15127;DHT22;7664;52.008;4.748;2023-10-19T12:04:18;19.60;99.90
15127;DHT22;7664;52.008;4.748;2023-10-19T12:06:47;19.60;99.90
15127;DHT22;7664;52.008;4.748;2023-10-19T12:09:15;19.60;99.90
15127;DHT22;7664;52.008;4.748;2023-10-19T12:11:44;19.60;99.90
15127;DHT22;7664;52.008;4.748;2023-10-19T12:14:16;19.60;99.90
15127;DHT22;7664;52.008;4.748;2023-10-19T12:16:44;19.60;99.90
15127;DHT22;7664;52.008;4.748;2023-10-19T12:19:13;19.50;99.90
15127;DHT22;7664;52.008;4.748;2023-10-19T12:21:43;19.40;99.90
15127;DHT22;7664;52.008;4.748;2023-10-19T12:24:11;19.40;99.90
15127;DHT22;7664;52.008;4.748;2023-10-19T12:26:39;19.30;99.90
15127;DHT22;7664;52.008;4.748;2023-10-19T12:29:08;19.30;99.90
15127;DHT22;7664;52.008;4.748;2023-10-19T12:31:40;19.20;99.90
15127;DHT22;7664;52.008;4.748;2023-10-19T12:34:08;19.10;99.90
15127;DHT22;7664;52.008;4.748;2023-10-19T12:36:38;19.10;99.90
15127;DHT22;7664;52.008;4.748;2023-10-19T12:39:08;19.00;99.90
15127;DHT22;7664;52.008;4.748;2023-10-19T12:41:42;19.00;99.90
15127;DHT22;7664;52.008;4.748;2023-10-19T12:44:10;19.00;99.90
15127;DHT22;7664;52.008;4.748;2023-10-19T12:46:40;19.00;99.90
15127;DHT22;7664;52.008;4.748;2023-10-19T12:49:09;18.90;99.90
15127;DHT22;7664;52.008;4.748;2023-10-19T12:51:43;18.90;99.90
15127;DHT22;7664;52.008;4.748;2023-10-19T12:54:11;18.90;99.90
15127;DHT22;7664;52.008;4.748;2023-10-19T12:56:40;18.90;99.90
15127;DHT22;7664;52.008;4.748;2023-10-19T12:59:08;18.80;99.90
15127;DHT22;7664;52.008;4.748;2023-10-19T13:01:39;18.80;99.90
15127;DHT22;7664;52.008;4.748;2023-10-19T13:04:08;18.80;99.90
15127;DHT22;7664;52.008;4.748;2023-10-19T13:06:43;18.80;99.90
15127;DHT22;7664;52.008;4.748;2023-10-19T13:09:14;18.70;99.90
15127;DHT22;7664;52.008;4.748;2023-10-19T13:11:48;18.80;99.90
15127;DHT22;7664;52.008;4.748;2023-10-19T13:14:19;18.80;99.90
15127;DHT22;7664;52.008;4.748;2023-10-19T13:16:48;18.80;99.90
15127;DHT22;7664;52.008;4.748;2023-10-19T13:19:18;18.80;99.90
15127;DHT22;7664;52.008;4.748;2023-10-19T13:21:47;18.80;99.90
15127;DHT22;7664;52.008;4.748;2023-10-19T13:24:18;18.80;99.90
15127;DHT22;7664;52.008;4.748;2023-10-19T13:26:47;18.90;99.90
15127;DHT22;7664;52.008;4.748;2023-10-19T13:29:15;18.80;99.90
15127;DHT22;7664;52.008;4.748;2023-10-19T13:31:44;18.70;99.90
15127;DHT22;7664;52.008;4.748;2023-10-19T13:34:17;18.70;99.90
15127;DHT22;7664;52.008;4.748;2023-10-19T13:36:45;18.70;99.90
15127;DHT22;7664;52.008;4.748;2023-10-19T13:39:13;18.60;99.90
15127;DHT22;7664;52.008;4.748;2023-10-19T13:41:43;18.60;99.90
15127;DHT22;7664;52.008;4.748;2023-10-19T13:44:12;18.60;99.90
15127;DHT22;7664;52.008;4.748;2023-10-19T13:46:40;18.60;99.90
15127;DHT22;7664;52.008;4.748;2023-10-19T13:49:08;18.60;99.90
15127;DHT22;7664;52.008;4.748;2023-10-19T13:51:41;18.70;99.90
15127;DHT22;7664;52.008;4.748;2023-10-19T13:54:10;18.60;99.90
15127;DHT22;7664;52.008;4.748;2023-10-19T13:56:39;18.60;99.90
15127;DHT22;7664;52.008;4.748;2023-10-19T13:59:07;18.60;99.90
15127;DHT22;7664;52.008;4.748;2023-10-19T14:01:38;18.60;99.90
15127;DHT22;7664;52.008;4.748;2023-10-19T14:04:06;18.50;99.90
15127;DHT22;7664;52.008;4.748;2023-10-19T14:06:35;18.40;99.90
15127;DHT22;7664;52.008;4.748;2023-10-19T14:09:05;18.40;99.90
15127;DHT22;7664;52.008;4.748;2023-10-19T14:11:33;18.30;99.90
15127;DHT22;7664;52.008;4.748;2023-10-19T14:14:01;18.30;99.90
15127;DHT22;7664;52.008;4.748;2023-10-19T14:16:29;18.20;99.90
15127;DHT22;7664;52.008;4.748;2023-10-19T14:18:58;18.10;99.90
15127;DHT22;7664;52.008;4.748;2023-10-19T14:21:26;18.10;99.90
15127;DHT22;7664;52.008;4.748;2023-10-19T14:23:55;18.10;99.90
15127;DHT22;7664;52.008;4.748;2023-10-19T14:26:25;18.00;99.90
15127;DHT22;7664;52.008;4.748;2023-10-19T14:28:53;18.00;99.90
15127;DHT22;7664;52.008;4.748;2023-10-19T14:31:21;17.90;99.90
15127;DHT22;7664;52.008;4.748;2023-10-19T14:33:49;17.80;99.90
15127;DHT22;7664;52.008;4.748;2023-10-19T14:36:17;17.70;99.90
15127;DHT22;7664;52.008;4.748;2023-10-19T14:38:46;17.80;99.90
15127;DHT22;7664;52.008;4.748;2023-10-19T14:41:14;17.70;99.90
15127;DHT22;7664;52.008;4.748;2023-10-19T14:43:43;17.70;99.90
15127;DHT22;7664;52.008;4.748;2023-10-19T14:46:12;17.70;99.90
15127;DHT22;7664;52.008;4.748;2023-10-19T14:48:40;17.70;99.90
15127;DHT22;7664;52.008;4.748;2023-10-19T14:51:08;17.70;99.90
15127;DHT22;7664;52.008;4.748;2023-10-19T14:53:36;17.70;99.90
15127;DHT22;7664;52.008;4.748;2023-10-19T14:56:05;17.70;99.90
15127;DHT22;7664;52.008;4.748;2023-10-19T14:58:35;17.70;99.90
15127;DHT22;7664;52.008;4.748;2023-10-19T15:01:05;17.80;99.90
15127;DHT22;7664;52.008;4.748;2023-10-19T15:03:42;17.80;99.90
15127;DHT22;7664;52.008;4.748;2023-10-19T15:06:10;17.90;99.90
15127;DHT22;7664;52.008;4.748;2023-10-19T15:08:41;18.00;99.90
15127;DHT22;7664;52.008;4.748;2023-10-19T15:11:09;18.10;99.90
15127;DHT22;7664;52.008;4.748;2023-10-19T15:13:37;18.10;99.90
15127;DHT22;7664;52.008;4.748;2023-10-19T15:16:11;18.00;99.90
15127;DHT22;7664;52.008;4.748;2023-10-19T15:18:40;18.00;99.90
15127;DHT22;7664;52.008;4.748;2023-10-19T15:21:09;18.00;99.90
15127;DHT22;7664;52.008;4.748;2023-10-19T15:23:38;18.00;99.90
15127;DHT22;7664;52.008;4.748;2023-10-19T15:26:07;17.90;99.90
15127;DHT22;7664;52.008;4.748;2023-10-19T15:28:36;17.90;99.90
15127;DHT22;7664;52.008;4.748;2023-10-19T15:31:05;17.90;99.90
15127;DHT22;7664;52.008;4.748;2023-10-19T15:33:35;17.90;99.90
15127;DHT22;7664;52.008;4.748;2023-10-19T15:36:03;17.80;99.90
15127;DHT22;7664;52.008;4.748;2023-10-19T15:38:32;17.80;99.90
15127;DHT22;7664;52.008;4.748;2023-10-19T15:41:00;17.70;99.90
15127;DHT22;7664;52.008;4.748;2023-10-19T15:43:28;17.70;99.90
15127;DHT22;7664;52.008;4.748;2023-10-19T15:45:57;17.70;99.90
15127;DHT22;7664;52.008;4.748;2023-10-19T15:48:31;17.60;99.90
15127;DHT22;7664;52.008;4.748;2023-10-19T15:51:04;17.60;99.90
15127;DHT22;7664;52.008;4.748;2023-10-19T15:53:32;17.60;99.90
15127;DHT22;7664;52.008;4.748;2023-10-19T15:56:02;17.50;99.90
15127;DHT22;7664;52.008;4.748;2023-10-19T15:58:31;17.50;99.90
15127;DHT22;7664;52.008;4.748;2023-10-19T16:00:59;17.50;99.90
15127;DHT22;7664;52.008;4.748;2023-10-19T16:03:27;17.50;99.90
15127;DHT22;7664;52.008;4.748;2023-10-19T16:05:55;17.40;99.90
15127;DHT22;7664;52.008;4.748;2023-10-19T16:08:25;17.40;99.90